Silver Lake, Washington
Current Conditions -  °F | °C
As of 3:53 PM on Sunday 25 Jan 2015 (Local Time) from KPAE Reporting Station
Clear Clear  
Wind Chill: 54°   Ceiling: Unl
Heat Index: 54°   Visibility: 10mi
Dew Point: 48°   Wind: 5mph
Humidity: 80%   Direction: 10°N
Pressure: 30.09"   Gusts: NA
Location:  47.9027°N, 122.261°W
Report Text: KPAE 252353Z 01004KT 10SM CLR 12/09 A3009 RMK AO2 SLP189 T01220089 10172 20111 56012
Loading
Personal Weather Stations






























Interactive Weather Map New forecast layout! Learn more

10-Day Weather Forecast

Advertisements
Track Severe Weather on mobile